createdAt,value
2023-04-20T00:00:21.840Z,5.45
2023-04-20T00:02:50.176Z,5.37
2023-04-20T00:05:17.752Z,5.35
2023-04-20T00:07:45.297Z,5.29
2023-04-20T00:10:12.790Z,5.25
2023-04-20T00:12:40.267Z,5.20
2023-04-20T00:15:08.663Z,5.09
2023-04-20T00:17:38.335Z,5.00
2023-04-20T00:20:09.014Z,4.90
2023-04-20T00:22:36.921Z,4.77
2023-04-20T00:25:04.654Z,4.68
2023-04-20T00:27:32.110Z,4.60
2023-04-20T00:29:59.603Z,4.54
2023-04-20T00:32:28.443Z,4.60
2023-04-20T00:34:57.465Z,4.67
2023-04-20T00:37:25.700Z,4.64
2023-04-20T00:39:53.254Z,4.59
2023-04-20T00:42:20.850Z,4.59
2023-04-20T00:44:48.373Z,4.62
2023-04-20T00:47:15.883Z,4.61
2023-04-20T00:49:43.791Z,4.69
2023-04-20T00:52:12.755Z,4.73
2023-04-20T00:54:40.447Z,4.65
2023-04-20T00:57:08.023Z,4.66
2023-04-20T00:59:35.660Z,4.61
2023-04-20T01:02:03.354Z,4.44
2023-04-20T01:04:31.070Z,4.35
2023-04-20T01:06:58.632Z,4.37
2023-04-20T01:09:27.494Z,4.43
2023-04-20T01:11:55.003Z,4.48
2023-04-20T01:14:22.523Z,4.42
2023-04-20T01:16:51.995Z,4.23
2023-04-20T01:19:19.772Z,4.13
2023-04-20T01:21:47.913Z,4.04
2023-04-20T02:31:41.891Z,3.11
2023-04-20T02:34:11.047Z,3.15
2023-04-20T02:36:39.209Z,3.19
2023-04-20T02:39:07.811Z,3.23
2023-04-20T02:41:35.946Z,3.36
2023-04-20T02:44:03.571Z,3.44
2023-04-20T02:46:31.285Z,3.32
2023-04-20T02:49:00.789Z,3.29
2023-04-20T02:51:28.580Z,3.26
2023-04-20T02:53:56.276Z,3.17
2023-04-20T02:56:23.991Z,3.13
2023-04-20T02:58:52.191Z,3.25
2023-04-20T03:01:19.867Z,3.42
2023-04-20T03:03:47.780Z,3.55
2023-04-20T03:06:16.997Z,3.68
2023-04-20T03:08:44.852Z,3.76
2023-04-20T03:11:12.592Z,3.80
2023-04-20T03:13:41.553Z,3.77
2023-04-20T03:16:09.333Z,3.72
2023-04-20T03:18:37.160Z,3.78
2023-04-20T03:21:05.215Z,3.83
2023-04-20T03:23:34.460Z,3.80
2023-04-20T03:26:02.381Z,3.79
2023-04-20T03:28:30.040Z,3.70
2023-04-20T03:30:57.801Z,3.67
2023-04-20T03:33:25.882Z,3.64
2023-04-20T03:35:53.461Z,3.50
2023-04-20T03:38:21.315Z,3.30
2023-04-20T03:40:50.958Z,3.12
2023-04-20T03:43:18.599Z,3.03
2023-04-20T03:45:46.774Z,3.08
2023-04-20T03:48:14.564Z,3.20
2023-04-20T03:50:42.256Z,3.26
2023-04-20T03:53:09.927Z,3.22
2023-04-20T03:55:37.735Z,3.23
2023-04-20T03:58:07.695Z,3.35
2023-04-20T04:00:35.403Z,3.41
2023-04-20T04:03:03.326Z,3.45
2023-04-20T04:05:31.633Z,3.54
2023-04-20T04:07:59.494Z,3.49
2023-04-20T04:10:27.675Z,3.31
2023-04-20T04:12:55.397Z,3.16
2023-04-20T04:15:24.523Z,3.13
2023-04-20T04:17:52.235Z,3.13
2023-04-20T04:20:19.917Z,3.19
2023-04-20T04:22:48.084Z,3.24
2023-04-20T04:25:15.685Z,3.15
2023-04-20T04:27:43.414Z,3.10
2023-04-20T04:30:12.526Z,3.09
2023-04-20T04:32:41.884Z,3.09
2023-04-20T04:35:11.320Z,3.14
2023-04-20T04:37:39.126Z,3.16
2023-04-20T04:40:09.066Z,3.15
2023-04-20T04:42:37.216Z,3.13
2023-04-20T04:45:05.830Z,3.18
2023-04-20T04:47:35.796Z,3.27
2023-04-20T04:50:06.110Z,3.35
2023-04-20T04:52:34.183Z,3.36
2023-04-20T04:55:02.729Z,3.28
2023-04-20T04:57:30.570Z,3.22
2023-04-20T04:59:58.302Z,3.20
2023-04-20T05:02:26.271Z,3.25
2023-04-20T05:04:54.354Z,3.36
2023-04-20T05:07:24.864Z,3.39
2023-04-20T05:09:52.557Z,3.41
2023-04-20T05:12:20.668Z,3.55
2023-04-20T05:14:48.583Z,3.69
2023-04-20T05:17:16.405Z,3.84
2023-04-20T05:19:44.138Z,3.92
2023-04-20T05:22:11.887Z,4.01
2023-04-20T05:24:41.096Z,3.98
2023-04-20T05:27:08.942Z,3.97
2023-04-20T05:29:37.275Z,4.01
2023-04-20T05:32:05.150Z,4.11
2023-04-20T05:34:32.971Z,4.16
2023-04-20T05:37:01.299Z,4.23
2023-04-20T05:39:29.077Z,4.36
2023-04-20T05:41:58.217Z,4.39
2023-04-20T05:44:26.027Z,4.39
2023-04-20T05:46:53.903Z,4.45
2023-04-20T05:49:21.722Z,4.46
2023-04-20T05:51:49.543Z,4.53
2023-04-20T05:54:17.813Z,4.53
2023-04-20T05:56:45.621Z,4.50
2023-04-20T05:59:14.895Z,4.47
2023-04-20T06:01:42.865Z,4.45
2023-04-20T06:04:10.667Z,4.45
2023-04-20T06:06:38.642Z,4.51
2023-04-20T06:09:06.597Z,4.68
2023-04-20T06:11:34.546Z,4.85
2023-04-20T06:14:02.228Z,5.02
2023-04-20T06:16:31.382Z,5.24
2023-04-20T06:18:59.049Z,5.37
2023-04-20T06:21:27.335Z,5.41
2023-04-20T06:23:54.949Z,5.46
2023-04-20T06:26:23.372Z,5.55
2023-04-20T06:28:53.040Z,5.65
2023-04-20T06:31:21.223Z,5.77
2023-04-20T06:33:50.190Z,5.88
2023-04-20T06:36:17.769Z,5.97
2023-04-20T06:38:45.707Z,6.11
2023-04-20T06:41:13.447Z,6.14
2023-04-20T06:43:42.324Z,6.09
2023-04-20T06:46:10.279Z,6.09
2023-04-20T06:48:38.420Z,6.12
2023-04-20T06:51:07.412Z,6.16
2023-04-20T06:53:34.959Z,6.23
2023-04-20T06:56:02.649Z,6.34
2023-04-20T06:58:30.183Z,6.47
2023-04-20T07:00:57.890Z,6.59
2023-04-20T07:03:25.664Z,6.69
2023-04-20T07:05:53.377Z,6.74
2023-04-20T07:08:22.307Z,6.83
2023-04-20T07:10:49.965Z,6.91
2023-04-20T07:13:17.662Z,6.96
2023-04-20T07:15:46.245Z,6.97
2023-04-20T07:18:13.828Z,6.92
2023-04-20T07:20:41.558Z,6.81
2023-04-20T07:23:09.117Z,6.77
2023-04-20T07:25:38.060Z,6.77
2023-04-20T07:28:05.675Z,6.77
2023-04-20T07:30:33.380Z,6.76
2023-04-20T07:33:01.118Z,6.77
2023-04-20T07:35:28.772Z,6.82
2023-04-20T07:37:56.356Z,6.83
2023-04-20T07:40:24.076Z,6.83
2023-04-20T07:42:52.936Z,6.84
2023-04-20T07:45:21.731Z,6.80
2023-04-20T07:47:51.434Z,6.74
2023-04-20T07:50:19.276Z,6.73
2023-04-20T07:52:47.012Z,6.67
2023-04-20T07:55:15.778Z,6.55
2023-04-20T07:57:43.332Z,6.45
2023-04-20T08:00:14.161Z,6.42
2023-04-20T08:02:42.024Z,6.38
2023-04-20T08:05:11.212Z,6.29
2023-04-20T08:07:39.121Z,6.30
2023-04-20T08:10:08.228Z,6.35
2023-04-20T08:12:35.822Z,6.32
2023-04-20T08:15:06.338Z,6.31
2023-04-20T08:17:35.420Z,6.33
2023-04-20T08:20:05.809Z,6.34
2023-04-20T08:22:33.883Z,6.36
2023-04-20T08:25:01.389Z,6.39
2023-04-20T08:27:29.731Z,6.37
2023-04-20T08:29:57.384Z,6.35
2023-04-20T08:32:26.619Z,6.40
2023-04-20T08:34:56.156Z,6.42
2023-04-20T08:37:23.729Z,6.44
2023-04-20T08:39:51.255Z,6.53
2023-04-20T08:42:18.920Z,6.65
2023-04-20T08:44:46.465Z,6.78
2023-04-20T08:47:14.151Z,6.86
2023-04-20T08:49:43.096Z,6.91
2023-04-20T08:52:12.638Z,6.97
2023-04-20T08:54:55.325Z,7.04
2023-04-20T08:57:24.687Z,7.05
2023-04-20T08:59:52.246Z,7.06
2023-04-20T09:02:20.015Z,7.04
2023-04-20T09:04:49.153Z,7.05
2023-04-20T09:07:21.381Z,7.12
2023-04-20T09:09:56.199Z,7.21
2023-04-20T09:12:24.704Z,7.33
2023-04-20T09:14:53.066Z,7.40
2023-04-20T09:17:32.588Z,7.54
2023-04-20T09:20:00.216Z,7.71
2023-04-20T09:22:33.239Z,7.84
2023-04-20T09:25:01.182Z,7.96
2023-04-20T09:27:28.972Z,8.10
2023-04-20T09:30:00.244Z,8.23
2023-04-20T09:32:29.514Z,8.35
2023-04-20T09:34:57.456Z,8.37
2023-04-20T09:37:25.616Z,8.29
2023-04-20T09:39:59.931Z,8.24
2023-04-20T09:42:29.104Z,8.24
2023-04-20T09:44:58.343Z,8.24
2023-04-20T09:47:27.365Z,8.30
2023-04-20T09:49:56.361Z,8.34
2023-04-20T09:52:26.877Z,8.38
2023-04-20T09:54:56.142Z,8.54
2023-04-20T09:57:26.578Z,8.73
2023-04-20T09:59:55.820Z,8.81
2023-04-20T10:02:23.783Z,8.82
2023-04-20T10:04:55.249Z,8.73
2023-04-20T10:07:27.184Z,8.69
2023-04-20T10:10:10.683Z,8.76
2023-04-20T10:12:51.542Z,8.75
2023-04-20T10:15:20.202Z,8.72
2023-04-20T10:17:47.827Z,8.71
2023-04-20T10:20:23.746Z,8.71
2023-04-20T10:22:52.539Z,8.76
2023-04-20T10:25:27.381Z,8.74
2023-04-20T10:27:56.877Z,8.69
2023-04-20T10:30:24.775Z,8.65
2023-04-20T10:33:04.018Z,8.60
2023-04-20T10:35:44.602Z,8.57
2023-04-20T10:38:13.460Z,8.59
2023-04-20T10:40:42.474Z,8.74
2023-04-20T10:51:50.786Z,8.84
2023-04-20T10:54:20.197Z,8.84
2023-04-20T10:56:50.365Z,8.72
2023-04-20T10:59:19.822Z,8.61
2023-04-20T11:01:48.090Z,8.52
2023-04-20T11:04:18.573Z,8.41
2023-04-20T11:06:48.358Z,8.32
2023-04-20T11:09:20.889Z,8.28
2023-04-20T11:11:59.412Z,8.24
2023-04-20T11:14:27.308Z,8.21
2023-04-20T11:16:55.450Z,8.21
2023-04-20T11:19:24.767Z,8.19
2023-04-20T11:21:52.553Z,8.15
2023-04-20T11:24:20.796Z,8.14
2023-04-20T11:26:50.988Z,8.14
2023-04-20T11:29:32.501Z,8.16
2023-04-20T11:32:01.118Z,8.14
2023-04-20T11:34:29.112Z,8.12
2023-04-20T11:36:57.110Z,8.10
2023-04-20T11:39:25.814Z,8.09
2023-04-20T11:41:56.528Z,8.10
2023-04-20T11:44:25.830Z,8.10
2023-04-20T11:46:57.052Z,8.04
2023-04-20T11:49:25.748Z,7.99
2023-04-20T11:51:53.310Z,7.98
2023-04-20T11:54:21.778Z,8.03
2023-04-20T11:56:49.640Z,8.05
2023-04-20T11:59:20.061Z,8.05
2023-04-20T12:01:48.668Z,8.04
2023-04-20T12:04:16.859Z,8.01
2023-04-20T12:06:44.992Z,7.93
2023-04-20T12:09:13.370Z,7.91
2023-04-20T12:11:41.375Z,7.89
2023-04-20T12:14:08.928Z,7.87
2023-04-20T12:16:37.891Z,7.81
2023-04-20T12:19:05.437Z,7.76
2023-04-20T12:21:33.012Z,7.75
2023-04-20T12:24:00.524Z,7.68
2023-04-20T12:26:37.320Z,7.58
2023-04-20T12:29:07.170Z,7.56
2023-04-20T12:31:35.551Z,7.51
2023-04-20T12:34:04.999Z,7.46
2023-04-20T12:36:34.807Z,7.45
2023-04-20T12:39:02.458Z,7.37
2023-04-20T12:41:30.068Z,7.33
2023-04-20T12:43:57.652Z,7.34
2023-04-20T12:46:25.519Z,7.34
2023-04-20T12:48:53.638Z,7.35
2023-04-20T12:51:22.678Z,7.41
2023-04-20T12:53:50.220Z,7.45
2023-04-20T12:56:17.823Z,7.45
2023-04-20T12:58:45.894Z,7.47
2023-04-20T13:01:13.462Z,7.52
2023-04-20T13:03:42.567Z,7.62
2023-04-20T13:06:14.169Z,7.71
2023-04-20T13:08:43.355Z,7.71
2023-04-20T13:11:12.014Z,7.70
2023-04-20T13:13:39.637Z,7.73
2023-04-20T13:16:07.441Z,7.73
2023-04-20T13:18:35.203Z,7.71
2023-04-20T13:21:02.795Z,7.68
2023-04-20T13:23:30.724Z,7.63
2023-04-20T13:26:01.524Z,7.66
2023-04-20T13:28:29.204Z,7.74
2023-04-20T13:30:57.570Z,7.86
2023-04-20T13:33:25.774Z,7.97
2023-04-20T13:35:53.546Z,8.05
2023-04-20T13:38:21.312Z,8.09
2023-04-20T13:40:49.255Z,8.09
2023-04-20T13:43:21.372Z,8.08
2023-04-20T13:45:49.443Z,8.09
2023-04-20T13:48:17.019Z,8.02
2023-04-20T13:50:44.631Z,7.98
2023-04-20T13:53:12.209Z,7.97
2023-04-20T13:55:39.733Z,7.98
2023-04-20T13:58:07.357Z,8.01
2023-04-20T14:00:36.368Z,8.01
2023-04-20T14:03:05.573Z,8.01
2023-04-20T14:05:33.249Z,7.96
2023-04-20T14:08:01.679Z,7.90
2023-04-20T14:10:29.601Z,7.88
2023-04-20T14:12:57.367Z,7.82
2023-04-20T14:15:24.974Z,7.82
2023-04-20T14:17:54.103Z,7.76
2023-04-20T14:20:21.793Z,7.71
2023-04-20T14:22:49.357Z,7.68
2023-04-20T14:25:16.956Z,7.66
2023-04-20T14:27:44.560Z,7.62
2023-04-20T14:30:13.412Z,7.60
2023-04-20T14:32:41.358Z,7.54
2023-04-20T14:35:10.826Z,7.53
2023-04-20T14:37:38.343Z,7.53
2023-04-20T14:40:08.352Z,7.54
2023-04-20T14:42:36.392Z,7.57
2023-04-20T14:45:04.265Z,7.57
2023-04-20T14:47:31.930Z,7.56
2023-04-20T14:49:59.509Z,7.62
2023-04-20T14:52:28.426Z,7.67
2023-04-20T14:54:56.037Z,7.68
2023-04-20T14:57:23.602Z,7.67
2023-04-20T14:59:51.145Z,7.66
2023-04-20T15:02:19.337Z,7.60
2023-04-20T15:04:47.064Z,7.55
2023-04-20T15:07:14.845Z,7.54
2023-04-20T15:09:43.771Z,7.53
2023-04-20T15:12:11.363Z,7.53
2023-04-20T15:14:38.920Z,7.51
2023-04-20T15:17:06.548Z,7.47
2023-04-20T15:19:34.075Z,7.46
2023-04-20T15:22:01.816Z,7.43
2023-04-20T15:24:29.382Z,7.40
2023-04-20T15:26:58.230Z,7.35
2023-04-20T15:29:25.797Z,7.31
2023-04-20T15:31:53.374Z,7.27
2023-04-20T15:34:21.626Z,7.28
2023-04-20T15:36:49.476Z,7.32
2023-04-20T15:39:17.091Z,7.35
2023-04-20T15:41:44.621Z,7.40
2023-04-20T15:44:13.870Z,7.43
2023-04-20T15:46:41.467Z,7.45
2023-04-20T15:49:09.046Z,7.45
2023-04-20T15:51:36.596Z,7.44
2023-04-20T15:54:04.235Z,7.42
2023-04-20T15:56:31.821Z,7.38
2023-04-20T15:58:59.381Z,7.38
2023-04-20T16:01:28.266Z,7.38
2023-04-20T16:03:56.277Z,7.39
2023-04-20T16:06:24.200Z,7.41
2023-04-20T16:08:53.945Z,7.44
2023-04-20T16:11:24.875Z,7.48
2023-04-20T16:13:52.396Z,7.55
2023-04-20T16:16:19.964Z,7.57
2023-04-20T16:18:48.890Z,7.56
2023-04-20T16:21:16.558Z,7.59
2023-04-20T16:23:44.115Z,7.60
2023-04-20T16:26:11.647Z,7.59
2023-04-20T16:28:39.171Z,7.57
2023-04-20T16:31:06.975Z,7.56
2023-04-20T16:33:35.662Z,7.55
2023-04-20T16:36:04.999Z,7.56
2023-04-20T16:38:32.717Z,7.55
2023-04-20T16:41:00.292Z,7.56
2023-04-20T16:43:27.987Z,7.60
2023-04-20T16:45:55.628Z,7.61
2023-04-20T16:48:23.480Z,7.60
2023-04-20T16:50:51.141Z,7.60
2023-04-20T16:53:20.130Z,7.58
2023-04-20T16:55:47.695Z,7.59
2023-04-20T16:58:15.271Z,7.62
2023-04-20T17:00:42.943Z,7.62
2023-04-20T17:03:13.419Z,7.62
2023-04-20T17:05:42.321Z,7.62
2023-04-20T17:08:10.134Z,7.63
2023-04-20T17:10:39.700Z,7.61
2023-04-20T17:13:07.327Z,7.62
2023-04-20T17:15:34.932Z,7.64
2023-04-20T17:18:02.548Z,7.67
2023-04-20T17:20:30.187Z,7.66
2023-04-20T17:22:57.747Z,7.62
2023-04-20T17:25:25.300Z,7.62
2023-04-20T17:27:54.206Z,7.64
2023-04-20T17:30:21.796Z,7.64
2023-04-20T17:32:49.425Z,7.63
2023-04-20T17:35:17.034Z,7.62
2023-04-20T17:37:44.783Z,7.59
2023-04-20T17:40:12.748Z,7.62
2023-04-20T17:42:40.306Z,7.67
2023-04-20T17:45:10.789Z,7.72
2023-04-20T17:47:38.408Z,7.77
2023-04-20T17:50:07.158Z,7.82
2023-04-20T17:52:34.719Z,7.81
2023-04-20T17:55:02.334Z,7.80
2023-04-20T17:57:30.355Z,7.82
2023-04-20T17:59:57.859Z,7.81
2023-04-20T18:02:27.109Z,7.84
2023-04-20T18:04:59.686Z,7.86
2023-04-20T18:07:27.767Z,7.85
2023-04-20T18:09:55.573Z,7.84
2023-04-20T18:12:23.274Z,7.87
2023-04-20T18:14:50.823Z,7.88
2023-04-20T18:17:18.427Z,7.88
2023-04-20T18:19:47.409Z,7.83
2023-04-20T18:22:15.279Z,7.83
2023-04-20T18:24:42.923Z,7.80
2023-04-20T18:27:10.551Z,7.77
2023-04-20T18:29:38.085Z,7.77
2023-04-20T18:32:05.957Z,7.80
2023-04-20T18:34:33.667Z,7.84
2023-04-20T18:37:02.535Z,7.87
2023-04-20T18:39:30.117Z,7.88
2023-04-20T18:41:57.737Z,7.89
2023-04-20T18:44:25.577Z,7.90
2023-04-20T18:46:53.256Z,7.91
2023-04-20T18:49:20.771Z,7.92
2023-04-20T18:51:48.358Z,7.90
2023-04-20T18:54:17.471Z,7.87
2023-04-20T18:56:45.210Z,7.83
2023-04-20T18:59:12.777Z,7.75
2023-04-20T19:01:41.596Z,7.74
2023-04-20T19:04:09.441Z,7.76
2023-04-20T19:06:37.103Z,7.76
2023-04-20T19:09:07.288Z,7.73
2023-04-20T19:11:37.082Z,7.68
2023-04-20T19:14:04.603Z,7.64
2023-04-20T19:16:33.054Z,7.60
2023-04-20T19:19:01.362Z,7.59
2023-04-20T19:21:29.036Z,7.57
2023-04-20T19:23:56.827Z,7.54
2023-04-20T19:26:24.998Z,7.53
2023-04-20T19:28:53.985Z,7.50
2023-04-20T19:31:21.591Z,7.48
2023-04-20T19:33:49.212Z,7.45
2023-04-20T19:36:17.995Z,7.40
2023-04-20T19:38:46.465Z,7.38
2023-04-20T19:41:14.037Z,7.35
2023-04-20T19:43:41.611Z,7.34
2023-04-20T19:46:10.657Z,7.37
2023-04-20T19:48:38.395Z,7.41
2023-04-20T19:51:06.613Z,7.40
2023-04-20T19:53:34.311Z,7.38
2023-04-20T19:56:02.737Z,7.37
2023-04-20T19:58:31.774Z,7.33
2023-04-20T20:00:59.594Z,7.32
2023-04-20T20:03:28.910Z,7.34
2023-04-20T20:05:56.690Z,7.32
2023-04-20T20:08:24.580Z,7.32
2023-04-20T20:10:52.368Z,7.34
2023-04-20T20:13:19.952Z,7.33
2023-04-20T20:15:48.220Z,7.31
2023-04-20T20:18:16.007Z,7.31
2023-04-20T20:20:45.351Z,7.32
2023-04-20T20:23:13.717Z,7.33
2023-04-20T20:25:41.464Z,7.31
2023-04-20T20:28:09.257Z,7.30
2023-04-20T20:30:37.023Z,7.30
2023-04-20T20:33:05.131Z,7.37
2023-04-20T20:35:33.496Z,7.46
2023-04-20T20:38:06.613Z,7.50
2023-04-20T20:40:35.584Z,7.55
2023-04-20T20:43:04.196Z,7.58
2023-04-20T20:45:32.488Z,7.61
2023-04-20T20:48:00.623Z,7.67
2023-04-20T20:50:28.500Z,7.73
2023-04-20T20:52:56.285Z,7.76
2023-04-20T20:55:25.894Z,7.76
2023-04-20T20:57:53.746Z,7.77
2023-04-20T21:00:21.762Z,7.79
2023-04-20T21:02:49.901Z,7.78
2023-04-20T21:05:17.978Z,7.80
2023-04-20T21:07:46.019Z,7.82
2023-04-20T21:10:13.846Z,7.82
2023-04-20T21:12:43.129Z,7.79
2023-04-20T21:15:12.176Z,7.75
2023-04-20T21:17:39.847Z,7.71
2023-04-20T21:20:09.446Z,7.66
2023-04-20T21:22:37.223Z,7.63
2023-04-20T21:25:05.686Z,7.60
2023-04-20T21:27:33.788Z,7.59
2023-04-20T21:30:03.269Z,7.53
2023-04-20T21:32:31.131Z,7.49
2023-04-20T21:34:58.767Z,7.40
2023-04-20T21:37:26.942Z,7.34
2023-04-20T21:39:54.747Z,7.31
2023-04-20T21:42:22.552Z,7.29
2023-04-20T21:44:50.449Z,7.29
2023-04-20T21:47:19.591Z,7.28
2023-04-20T21:49:47.434Z,7.31
2023-04-20T21:52:15.801Z,7.35
2023-04-20T21:54:44.051Z,7.39
2023-04-20T21:57:11.930Z,7.40
2023-04-20T21:59:39.835Z,7.40
2023-04-20T22:02:07.724Z,7.36
2023-04-20T22:04:37.395Z,7.29
2023-04-20T22:07:05.487Z,7.25
2023-04-20T22:09:33.799Z,7.21
2023-04-20T22:12:03.248Z,7.16
2023-04-20T22:14:31.264Z,7.14
2023-04-20T22:16:59.628Z,7.13
2023-04-20T22:19:27.788Z,7.10
2023-04-20T22:21:56.947Z,7.10
2023-04-20T22:24:24.955Z,7.09
2023-04-20T22:26:52.800Z,7.11
2023-04-20T22:29:20.809Z,7.13
2023-04-20T22:31:48.997Z,7.17
2023-04-20T22:34:16.854Z,7.25
2023-04-20T22:36:44.855Z,7.30
2023-04-20T22:39:14.184Z,7.26
2023-04-20T22:41:42.077Z,7.22
2023-04-20T22:44:09.752Z,7.20
2023-04-20T22:46:37.536Z,7.17
2023-04-20T22:49:05.467Z,7.11
2023-04-20T22:51:33.227Z,7.06
2023-04-20T22:54:02.789Z,7.03
2023-04-20T22:56:32.210Z,7.05
2023-04-20T22:59:00.156Z,7.07
2023-04-20T23:01:28.271Z,7.05
2023-04-20T23:03:56.269Z,7.00
2023-04-20T23:06:24.792Z,6.99
2023-04-20T23:08:52.671Z,7.03
2023-04-20T23:11:20.914Z,7.07
2023-04-20T23:13:50.667Z,7.09
2023-04-20T23:16:18.670Z,7.07
2023-04-20T23:18:46.324Z,7.01
2023-04-20T23:21:14.100Z,6.97
2023-04-20T23:23:42.091Z,6.98
2023-04-20T23:26:10.112Z,6.95
2023-04-20T23:28:37.976Z,6.92
2023-04-20T23:31:07.187Z,6.91
2023-04-20T23:33:34.969Z,6.84
2023-04-20T23:36:02.918Z,6.75
2023-04-20T23:38:30.571Z,6.66
2023-04-20T23:40:58.614Z,6.55
2023-04-20T23:43:26.812Z,6.47
2023-04-20T23:45:54.681Z,6.40
2023-04-20T23:48:24.105Z,6.35
2023-04-20T23:50:51.852Z,6.29
2023-04-20T23:53:19.560Z,6.22
2023-04-20T23:55:51.738Z,6.15
2023-04-20T23:58:19.806Z,6.12
